sensor_id;sensor_type;location;lat;lon;timestamp;P1;durP1;ratioP1;P2;durP2;ratioP2
56114;SDS011;41988;53.020;6.576;2022-12-11T00:02:37;83.40;;;22.43;;
56114;SDS011;41988;53.020;6.576;2022-12-11T00:05:22;86.30;;;22.77;;
56114;SDS011;41988;53.020;6.576;2022-12-11T00:08:06;72.00;;;19.83;;
56114;SDS011;41988;53.020;6.576;2022-12-11T00:10:51;76.23;;;22.50;;
56114;SDS011;41988;53.020;6.576;2022-12-11T00:13:35;86.80;;;23.50;;
56114;SDS011;41988;53.020;6.576;2022-12-11T00:16:20;74.37;;;22.00;;
56114;SDS011;41988;53.020;6.576;2022-12-11T00:19:05;81.30;;;21.77;;
56114;SDS011;41988;53.020;6.576;2022-12-11T00:21:49;82.33;;;21.53;;
56114;SDS011;41988;53.020;6.576;2022-12-11T00:24:34;78.07;;;22.10;;
56114;SDS011;41988;53.020;6.576;2022-12-11T00:27:18;84.90;;;22.13;;
56114;SDS011;41988;53.020;6.576;2022-12-11T00:30:03;87.60;;;23.10;;
56114;SDS011;41988;53.020;6.576;2022-12-11T00:32:50;92.87;;;22.57;;
56114;SDS011;41988;53.020;6.576;2022-12-11T00:35:38;78.27;;;23.27;;
56114;SDS011;41988;53.020;6.576;2022-12-11T00:38:26;93.53;;;26.33;;
56114;SDS011;41988;53.020;6.576;2022-12-11T00:41:11;80.80;;;22.90;;
56114;SDS011;41988;53.020;6.576;2022-12-11T00:43:56;80.77;;;22.13;;
56114;SDS011;41988;53.020;6.576;2022-12-11T00:46:41;78.87;;;22.10;;
56114;SDS011;41988;53.020;6.576;2022-12-11T00:49:25;92.90;;;22.53;;
56114;SDS011;41988;53.020;6.576;2022-12-11T00:52:10;93.53;;;26.10;;
56114;SDS011;41988;53.020;6.576;2022-12-11T00:54:55;91.73;;;22.63;;
56114;SDS011;41988;53.020;6.576;2022-12-11T00:57:39;91.53;;;22.87;;
56114;SDS011;41988;53.020;6.576;2022-12-11T01:00:24;97.37;;;24.00;;
56114;SDS011;41988;53.020;6.576;2022-12-11T01:03:09;85.20;;;23.33;;
56114;SDS011;41988;53.020;6.576;2022-12-11T01:05:55;96.37;;;23.73;;
56114;SDS011;41988;53.020;6.576;2022-12-11T01:08:39;98.43;;;26.27;;
56114;SDS011;41988;53.020;6.576;2022-12-11T01:11:24;97.73;;;27.00;;
56114;SDS011;41988;53.020;6.576;2022-12-11T01:14:09;103.27;;;25.37;;
56114;SDS011;41988;53.020;6.576;2022-12-11T01:16:54;98.07;;;26.83;;
56114;SDS011;41988;53.020;6.576;2022-12-11T01:19:38;89.80;;;25.43;;
56114;SDS011;41988;53.020;6.576;2022-12-11T01:22:23;89.50;;;22.87;;
56114;SDS011;41988;53.020;6.576;2022-12-11T01:25:07;103.63;;;25.87;;
56114;SDS011;41988;53.020;6.576;2022-12-11T01:27:53;109.03;;;25.87;;
56114;SDS011;41988;53.020;6.576;2022-12-11T01:30:40;121.17;;;24.00;;
56114;SDS011;41988;53.020;6.576;2022-12-11T01:33:25;106.27;;;24.67;;
56114;SDS011;41988;53.020;6.576;2022-12-11T01:36:11;107.37;;;24.60;;
56114;SDS011;41988;53.020;6.576;2022-12-11T01:39:00;93.83;;;26.53;;
56114;SDS011;41988;53.020;6.576;2022-12-11T01:41:45;108.87;;;24.13;;
56114;SDS011;41988;53.020;6.576;2022-12-11T01:47:14;109.53;;;23.83;;
56114;SDS011;41988;53.020;6.576;2022-12-11T01:49:59;112.53;;;24.93;;
56114;SDS011;41988;53.020;6.576;2022-12-11T01:52:43;101.13;;;24.43;;
56114;SDS011;41988;53.020;6.576;2022-12-11T01:55:31;105.30;;;24.00;;
56114;SDS011;41988;53.020;6.576;2022-12-11T01:58:15;90.03;;;23.77;;
56114;SDS011;41988;53.020;6.576;2022-12-11T02:01:01;96.67;;;23.00;;
56114;SDS011;41988;53.020;6.576;2022-12-11T02:03:46;99.67;;;24.13;;
56114;SDS011;41988;53.020;6.576;2022-12-11T02:06:31;93.33;;;23.13;;
56114;SDS011;41988;53.020;6.576;2022-12-11T02:09:18;106.73;;;24.80;;
56114;SDS011;41988;53.020;6.576;2022-12-11T02:15:16;81.60;;;20.50;;
56114;SDS011;41988;53.020;6.576;2022-12-11T02:18:28;77.27;;;21.03;;
56114;SDS011;41988;53.020;6.576;2022-12-11T02:21:33;81.43;;;19.43;;
56114;SDS011;41988;53.020;6.576;2022-12-11T02:27:40;63.37;;;19.17;;
56114;SDS011;41988;53.020;6.576;2022-12-11T02:30:29;76.83;;;21.90;;
56114;SDS011;41988;53.020;6.576;2022-12-11T02:33:17;71.20;;;20.07;;
56114;SDS011;41988;53.020;6.576;2022-12-11T02:36:06;73.83;;;20.33;;
56114;SDS011;41988;53.020;6.576;2022-12-11T02:38:52;69.90;;;19.83;;
56114;SDS011;41988;53.020;6.576;2022-12-11T02:41:40;68.53;;;19.37;;
56114;SDS011;41988;53.020;6.576;2022-12-11T02:44:28;65.87;;;20.30;;
56114;SDS011;41988;53.020;6.576;2022-12-11T02:47:14;80.67;;;20.13;;
56114;SDS011;41988;53.020;6.576;2022-12-11T02:50:01;78.13;;;19.97;;
56114;SDS011;41988;53.020;6.576;2022-12-11T02:52:50;67.97;;;20.10;;
56114;SDS011;41988;53.020;6.576;2022-12-11T02:55:38;69.60;;;19.03;;
56114;SDS011;41988;53.020;6.576;2022-12-11T02:58:25;72.43;;;19.20;;
56114;SDS011;41988;53.020;6.576;2022-12-11T03:01:13;70.33;;;18.97;;
56114;SDS011;41988;53.020;6.576;2022-12-11T03:03:58;70.83;;;18.13;;
56114;SDS011;41988;53.020;6.576;2022-12-11T03:06:44;64.53;;;18.13;;
56114;SDS011;41988;53.020;6.576;2022-12-11T03:09:31;65.70;;;19.53;;
56114;SDS011;41988;53.020;6.576;2022-12-11T03:12:21;81.40;;;19.20;;
56114;SDS011;41988;53.020;6.576;2022-12-11T03:15:09;67.10;;;18.37;;
56114;SDS011;41988;53.020;6.576;2022-12-11T03:20:56;85.97;;;18.50;;
56114;SDS011;41988;53.020;6.576;2022-12-11T03:23:49;78.40;;;20.23;;
56114;SDS011;41988;53.020;6.576;2022-12-11T03:26:49;88.53;;;19.83;;
56114;SDS011;41988;53.020;6.576;2022-12-11T03:29:39;78.73;;;19.87;;
56114;SDS011;41988;53.020;6.576;2022-12-11T03:32:37;87.57;;;21.27;;
56114;SDS011;41988;53.020;6.576;2022-12-11T03:35:29;68.50;;;20.90;;
56114;SDS011;41988;53.020;6.576;2022-12-11T03:38:22;76.33;;;21.53;;
56114;SDS011;41988;53.020;6.576;2022-12-11T03:41:10;71.20;;;19.60;;
56114;SDS011;41988;53.020;6.576;2022-12-11T03:43:57;90.33;;;22.60;;
56114;SDS011;41988;53.020;6.576;2022-12-11T03:46:42;95.70;;;22.00;;
56114;SDS011;41988;53.020;6.576;2022-12-11T03:49:30;95.27;;;21.40;;
56114;SDS011;41988;53.020;6.576;2022-12-11T03:52:18;77.30;;;20.17;;
56114;SDS011;41988;53.020;6.576;2022-12-11T03:55:03;73.20;;;19.80;;
56114;SDS011;41988;53.020;6.576;2022-12-11T03:57:49;81.23;;;20.27;;
56114;SDS011;41988;53.020;6.576;2022-12-11T04:00:33;84.20;;;20.53;;
56114;SDS011;41988;53.020;6.576;2022-12-11T04:03:18;80.73;;;19.27;;
56114;SDS011;41988;53.020;6.576;2022-12-11T04:06:02;75.27;;;20.10;;
56114;SDS011;41988;53.020;6.576;2022-12-11T04:08:47;79.67;;;20.83;;
56114;SDS011;41988;53.020;6.576;2022-12-11T04:11:31;73.03;;;21.07;;
56114;SDS011;41988;53.020;6.576;2022-12-11T04:14:19;74.33;;;20.47;;
56114;SDS011;41988;53.020;6.576;2022-12-11T04:17:22;90.40;;;22.77;;
56114;SDS011;41988;53.020;6.576;2022-12-11T04:20:26;84.00;;;20.37;;
56114;SDS011;41988;53.020;6.576;2022-12-11T04:23:29;87.90;;;22.33;;
56114;SDS011;41988;53.020;6.576;2022-12-11T04:26:33;94.63;;;23.70;;
56114;SDS011;41988;53.020;6.576;2022-12-11T04:29:17;80.10;;;21.50;;
56114;SDS011;41988;53.020;6.576;2022-12-11T04:32:02;76.40;;;23.17;;
56114;SDS011;41988;53.020;6.576;2022-12-11T04:34:46;87.27;;;22.80;;
56114;SDS011;41988;53.020;6.576;2022-12-11T04:37:31;101.67;;;21.63;;
56114;SDS011;41988;53.020;6.576;2022-12-11T04:40:16;81.43;;;20.40;;
56114;SDS011;41988;53.020;6.576;2022-12-11T04:43:01;77.00;;;21.40;;
56114;SDS011;41988;53.020;6.576;2022-12-11T04:45:46;83.50;;;22.13;;
56114;SDS011;41988;53.020;6.576;2022-12-11T04:48:30;91.93;;;21.20;;
56114;SDS011;41988;53.020;6.576;2022-12-11T04:51:15;83.23;;;23.37;;
56114;SDS011;41988;53.020;6.576;2022-12-11T04:54:01;71.03;;;20.57;;
56114;SDS011;41988;53.020;6.576;2022-12-11T04:56:45;81.33;;;21.23;;
56114;SDS011;41988;53.020;6.576;2022-12-11T04:59:33;77.27;;;20.67;;
56114;SDS011;41988;53.020;6.576;2022-12-11T05:02:17;73.97;;;20.73;;
56114;SDS011;41988;53.020;6.576;2022-12-11T05:05:03;68.20;;;21.50;;
56114;SDS011;41988;53.020;6.576;2022-12-11T05:07:48;82.23;;;21.77;;
56114;SDS011;41988;53.020;6.576;2022-12-11T05:10:33;74.53;;;19.63;;
56114;SDS011;41988;53.020;6.576;2022-12-11T05:13:17;72.20;;;21.47;;
56114;SDS011;41988;53.020;6.576;2022-12-11T05:16:06;72.00;;;21.67;;
56114;SDS011;41988;53.020;6.576;2022-12-11T05:18:51;79.80;;;22.53;;
56114;SDS011;41988;53.020;6.576;2022-12-11T05:21:36;73.57;;;21.33;;
56114;SDS011;41988;53.020;6.576;2022-12-11T05:24:20;73.73;;;20.20;;
56114;SDS011;41988;53.020;6.576;2022-12-11T05:27:05;71.37;;;21.00;;
56114;SDS011;41988;53.020;6.576;2022-12-11T05:29:50;81.83;;;22.17;;
56114;SDS011;41988;53.020;6.576;2022-12-11T05:32:34;70.73;;;21.13;;
56114;SDS011;41988;53.020;6.576;2022-12-11T05:35:19;81.43;;;21.80;;
56114;SDS011;41988;53.020;6.576;2022-12-11T05:38:03;80.10;;;21.67;;
56114;SDS011;41988;53.020;6.576;2022-12-11T05:40:58;86.03;;;23.43;;
56114;SDS011;41988;53.020;6.576;2022-12-11T05:43:47;73.37;;;21.43;;
56114;SDS011;41988;53.020;6.576;2022-12-11T05:46:31;69.73;;;19.07;;
56114;SDS011;41988;53.020;6.576;2022-12-11T05:49:16;70.43;;;20.87;;
56114;SDS011;41988;53.020;6.576;2022-12-11T05:52:01;65.93;;;19.30;;
56114;SDS011;41988;53.020;6.576;2022-12-11T05:54:47;66.37;;;20.97;;
56114;SDS011;41988;53.020;6.576;2022-12-11T05:57:32;68.37;;;19.53;;
56114;SDS011;41988;53.020;6.576;2022-12-11T06:00:17;63.37;;;20.10;;
56114;SDS011;41988;53.020;6.576;2022-12-11T06:03:02;76.00;;;20.23;;
56114;SDS011;41988;53.020;6.576;2022-12-11T06:05:46;71.00;;;18.83;;
56114;SDS011;41988;53.020;6.576;2022-12-11T06:08:32;64.00;;;18.27;;
56114;SDS011;41988;53.020;6.576;2022-12-11T06:11:17;65.43;;;20.67;;
56114;SDS011;41988;53.020;6.576;2022-12-11T06:14:02;61.83;;;19.23;;
56114;SDS011;41988;53.020;6.576;2022-12-11T06:16:47;63.50;;;20.43;;
56114;SDS011;41988;53.020;6.576;2022-12-11T06:19:32;67.27;;;21.27;;
56114;SDS011;41988;53.020;6.576;2022-12-11T06:22:17;77.10;;;20.57;;
56114;SDS011;41988;53.020;6.576;2022-12-11T06:25:01;74.30;;;20.07;;
56114;SDS011;41988;53.020;6.576;2022-12-11T06:27:46;65.20;;;20.00;;
56114;SDS011;41988;53.020;6.576;2022-12-11T06:30:30;74.63;;;22.73;;
56114;SDS011;41988;53.020;6.576;2022-12-11T06:33:15;75.87;;;19.73;;
56114;SDS011;41988;53.020;6.576;2022-12-11T06:36:00;70.07;;;20.67;;
56114;SDS011;41988;53.020;6.576;2022-12-11T06:38:54;71.87;;;20.80;;
56114;SDS011;41988;53.020;6.576;2022-12-11T06:41:39;69.67;;;20.33;;
56114;SDS011;41988;53.020;6.576;2022-12-11T06:44:23;82.30;;;22.03;;
56114;SDS011;41988;53.020;6.576;2022-12-11T06:47:08;82.23;;;22.07;;
56114;SDS011;41988;53.020;6.576;2022-12-11T06:49:53;69.30;;;19.37;;
56114;SDS011;41988;53.020;6.576;2022-12-11T06:52:37;77.00;;;20.60;;
56114;SDS011;41988;53.020;6.576;2022-12-11T06:55:22;70.37;;;20.40;;
56114;SDS011;41988;53.020;6.576;2022-12-11T06:58:06;84.20;;;23.63;;
56114;SDS011;41988;53.020;6.576;2022-12-11T07:00:51;82.67;;;21.93;;
56114;SDS011;41988;53.020;6.576;2022-12-11T07:03:36;87.83;;;23.53;;
56114;SDS011;41988;53.020;6.576;2022-12-11T07:06:20;80.03;;;21.73;;
56114;SDS011;41988;53.020;6.576;2022-12-11T07:09:05;79.60;;;21.10;;
56114;SDS011;41988;53.020;6.576;2022-12-11T07:11:50;73.57;;;23.40;;
56114;SDS011;41988;53.020;6.576;2022-12-11T07:14:34;87.47;;;22.77;;
56114;SDS011;41988;53.020;6.576;2022-12-11T07:17:19;76.30;;;22.10;;
56114;SDS011;41988;53.020;6.576;2022-12-11T07:20:04;86.23;;;22.40;;
56114;SDS011;41988;53.020;6.576;2022-12-11T07:22:48;81.77;;;23.80;;
56114;SDS011;41988;53.020;6.576;2022-12-11T07:25:35;71.80;;;21.30;;
56114;SDS011;41988;53.020;6.576;2022-12-11T07:28:19;93.03;;;21.30;;
56114;SDS011;41988;53.020;6.576;2022-12-11T07:31:05;80.50;;;24.00;;
56114;SDS011;41988;53.020;6.576;2022-12-11T07:33:55;77.03;;;22.27;;
56114;SDS011;41988;53.020;6.576;2022-12-11T07:36:41;73.97;;;21.10;;
56114;SDS011;41988;53.020;6.576;2022-12-11T07:39:26;71.37;;;20.57;;
56114;SDS011;41988;53.020;6.576;2022-12-11T07:42:10;68.23;;;20.97;;
56114;SDS011;41988;53.020;6.576;2022-12-11T07:44:55;72.70;;;20.37;;
56114;SDS011;41988;53.020;6.576;2022-12-11T07:47:39;85.00;;;22.57;;
56114;SDS011;41988;53.020;6.576;2022-12-11T07:50:24;79.80;;;21.53;;
56114;SDS011;41988;53.020;6.576;2022-12-11T07:53:09;80.87;;;20.80;;
56114;SDS011;41988;53.020;6.576;2022-12-11T07:55:53;79.77;;;20.50;;
56114;SDS011;41988;53.020;6.576;2022-12-11T07:58:38;80.87;;;22.87;;
56114;SDS011;41988;53.020;6.576;2022-12-11T08:01:23;79.53;;;21.27;;
56114;SDS011;41988;53.020;6.576;2022-12-11T08:04:10;75.00;;;21.20;;
56114;SDS011;41988;53.020;6.576;2022-12-11T08:06:57;79.43;;;20.63;;
56114;SDS011;41988;53.020;6.576;2022-12-11T08:09:42;70.40;;;21.50;;
56114;SDS011;41988;53.020;6.576;2022-12-11T08:12:27;80.33;;;20.70;;
56114;SDS011;41988;53.020;6.576;2022-12-11T08:15:11;88.30;;;23.33;;
56114;SDS011;41988;53.020;6.576;2022-12-11T08:17:56;78.10;;;22.83;;
56114;SDS011;41988;53.020;6.576;2022-12-11T08:20:41;83.63;;;20.67;;
56114;SDS011;41988;53.020;6.576;2022-12-11T08:23:25;78.77;;;20.70;;
56114;SDS011;41988;53.020;6.576;2022-12-11T08:26:14;82.80;;;21.17;;
56114;SDS011;41988;53.020;6.576;2022-12-11T08:29:02;77.43;;;20.87;;
56114;SDS011;41988;53.020;6.576;2022-12-11T08:31:46;84.13;;;20.57;;
56114;SDS011;41988;53.020;6.576;2022-12-11T08:34:31;85.30;;;23.47;;
56114;SDS011;41988;53.020;6.576;2022-12-11T08:37:15;91.50;;;22.60;;
56114;SDS011;41988;53.020;6.576;2022-12-11T08:40:00;78.40;;;20.90;;
56114;SDS011;41988;53.020;6.576;2022-12-11T08:42:44;77.53;;;19.93;;
56114;SDS011;41988;53.020;6.576;2022-12-11T08:45:29;74.70;;;21.53;;
56114;SDS011;41988;53.020;6.576;2022-12-11T08:48:13;73.53;;;21.43;;
56114;SDS011;41988;53.020;6.576;2022-12-11T08:50:59;77.47;;;21.40;;
56114;SDS011;41988;53.020;6.576;2022-12-11T08:53:43;81.43;;;21.07;;
56114;SDS011;41988;53.020;6.576;2022-12-11T08:56:28;84.50;;;22.87;;
56114;SDS011;41988;53.020;6.576;2022-12-11T08:59:13;82.00;;;21.27;;
56114;SDS011;41988;53.020;6.576;2022-12-11T09:01:58;81.43;;;21.10;;
56114;SDS011;41988;53.020;6.576;2022-12-11T09:04:43;86.83;;;21.63;;
56114;SDS011;41988;53.020;6.576;2022-12-11T09:07:27;80.63;;;21.03;;
56114;SDS011;41988;53.020;6.576;2022-12-11T09:10:12;83.27;;;22.07;;
56114;SDS011;41988;53.020;6.576;2022-12-11T09:12:56;81.93;;;21.03;;
56114;SDS011;41988;53.020;6.576;2022-12-11T09:15:41;86.93;;;22.87;;
56114;SDS011;41988;53.020;6.576;2022-12-11T09:18:25;83.67;;;22.77;;
56114;SDS011;41988;53.020;6.576;2022-12-11T09:21:12;81.60;;;21.97;;
56114;SDS011;41988;53.020;6.576;2022-12-11T09:23:58;73.03;;;22.97;;
56114;SDS011;41988;53.020;6.576;2022-12-11T09:26:44;81.83;;;22.20;;
56114;SDS011;41988;53.020;6.576;2022-12-11T09:29:29;81.90;;;21.73;;
56114;SDS011;41988;53.020;6.576;2022-12-11T09:32:14;76.57;;;21.47;;
56114;SDS011;41988;53.020;6.576;2022-12-11T09:34:59;69.97;;;22.03;;
56114;SDS011;41988;53.020;6.576;2022-12-11T09:37:43;80.27;;;23.33;;
56114;SDS011;41988;53.020;6.576;2022-12-11T09:40:28;83.70;;;23.07;;
56114;SDS011;41988;53.020;6.576;2022-12-11T09:45:58;85.63;;;23.40;;
56114;SDS011;41988;53.020;6.576;2022-12-11T09:48:46;85.57;;;22.97;;
56114;SDS011;41988;53.020;6.576;2022-12-11T09:51:41;87.90;;;25.87;;
56114;SDS011;41988;53.020;6.576;2022-12-11T09:54:33;82.70;;;22.63;;
56114;SDS011;41988;53.020;6.576;2022-12-11T10:00:13;85.60;;;22.83;;
56114;SDS011;41988;53.020;6.576;2022-12-11T10:03:26;93.47;;;24.87;;
56114;SDS011;41988;53.020;6.576;2022-12-11T10:06:29;81.40;;;24.00;;
56114;SDS011;41988;53.020;6.576;2022-12-11T10:17:55;77.63;;;23.63;;
56114;SDS011;41988;53.020;6.576;2022-12-11T10:20:41;80.03;;;24.50;;
56114;SDS011;41988;53.020;6.576;2022-12-11T10:23:29;76.90;;;24.73;;
56114;SDS011;41988;53.020;6.576;2022-12-11T10:26:19;81.17;;;22.97;;
56114;SDS011;41988;53.020;6.576;2022-12-11T10:29:05;74.53;;;20.77;;
56114;SDS011;41988;53.020;6.576;2022-12-11T10:31:57;74.77;;;21.13;;
56114;SDS011;41988;53.020;6.576;2022-12-11T10:34:43;75.87;;;21.60;;
56114;SDS011;41988;53.020;6.576;2022-12-11T10:37:30;66.27;;;21.47;;
56114;SDS011;41988;53.020;6.576;2022-12-11T10:40:14;71.30;;;22.57;;
56114;SDS011;41988;53.020;6.576;2022-12-11T10:43:00;81.30;;;25.40;;
56114;SDS011;41988;53.020;6.576;2022-12-11T10:45:52;68.70;;;23.17;;
56114;SDS011;41988;53.020;6.576;2022-12-11T10:48:43;83.53;;;23.23;;
56114;SDS011;41988;53.020;6.576;2022-12-11T10:54:25;75.67;;;22.63;;
56114;SDS011;41988;53.020;6.576;2022-12-11T10:57:15;78.73;;;24.90;;
56114;SDS011;41988;53.020;6.576;2022-12-11T10:59:59;65.90;;;22.37;;
56114;SDS011;41988;53.020;6.576;2022-12-11T11:02:44;67.33;;;22.87;;
56114;SDS011;41988;53.020;6.576;2022-12-11T11:05:34;66.33;;;20.73;;
56114;SDS011;41988;53.020;6.576;2022-12-11T11:08:20;76.07;;;22.87;;
56114;SDS011;41988;53.020;6.576;2022-12-11T11:11:05;77.00;;;21.00;;
56114;SDS011;41988;53.020;6.576;2022-12-11T11:13:51;73.57;;;22.63;;
56114;SDS011;41988;53.020;6.576;2022-12-11T11:16:48;71.50;;;21.13;;
56114;SDS011;41988;53.020;6.576;2022-12-11T11:19:35;79.00;;;22.47;;
56114;SDS011;41988;53.020;6.576;2022-12-11T11:22:20;80.73;;;23.23;;
56114;SDS011;41988;53.020;6.576;2022-12-11T11:25:05;73.20;;;21.83;;
56114;SDS011;41988;53.020;6.576;2022-12-11T11:28:04;76.43;;;21.10;;
56114;SDS011;41988;53.020;6.576;2022-12-11T11:30:58;64.90;;;21.03;;
56114;SDS011;41988;53.020;6.576;2022-12-11T11:33:56;74.43;;;23.13;;
56114;SDS011;41988;53.020;6.576;2022-12-11T11:36:53;79.40;;;23.97;;
56114;SDS011;41988;53.020;6.576;2022-12-11T11:39:39;75.17;;;22.37;;
56114;SDS011;41988;53.020;6.576;2022-12-11T11:42:34;82.77;;;24.73;;
56114;SDS011;41988;53.020;6.576;2022-12-11T11:45:21;73.63;;;23.30;;
56114;SDS011;41988;53.020;6.576;2022-12-11T11:48:27;73.80;;;21.87;;
56114;SDS011;41988;53.020;6.576;2022-12-11T11:51:36;71.00;;;22.83;;
56114;SDS011;41988;53.020;6.576;2022-12-11T11:54:27;69.43;;;21.73;;
56114;SDS011;41988;53.020;6.576;2022-12-11T12:03:11;81.63;;;24.77;;
56114;SDS011;41988;53.020;6.576;2022-12-11T12:12:47;76.83;;;22.43;;
56114;SDS011;41988;53.020;6.576;2022-12-11T12:15:44;72.53;;;23.07;;
56114;SDS011;41988;53.020;6.576;2022-12-11T12:18:59;80.03;;;22.00;;
56114;SDS011;41988;53.020;6.576;2022-12-11T12:21:56;59.90;;;21.30;;
56114;SDS011;41988;53.020;6.576;2022-12-11T12:24:54;68.38;;;21.20;;
56114;SDS011;41988;53.020;6.576;2022-12-11T12:30:40;72.13;;;22.57;;
56114;SDS011;41988;53.020;6.576;2022-12-11T12:34:09;80.83;;;25.27;;
56114;SDS011;41988;53.020;6.576;2022-12-11T12:43:05;70.87;;;23.20;;
56114;SDS011;41988;53.020;6.576;2022-12-11T12:46:22;76.50;;;22.20;;
56114;SDS011;41988;53.020;6.576;2022-12-11T12:58:05;66.33;;;20.80;;
56114;SDS011;41988;53.020;6.576;2022-12-11T13:00:50;77.40;;;22.13;;
56114;SDS011;41988;53.020;6.576;2022-12-11T13:03:36;80.63;;;22.97;;
56114;SDS011;41988;53.020;6.576;2022-12-11T13:06:44;69.70;;;19.97;;
56114;SDS011;41988;53.020;6.576;2022-12-11T13:09:30;74.60;;;23.77;;
56114;SDS011;41988;53.020;6.576;2022-12-11T13:12:14;69.40;;;23.03;;
56114;SDS011;41988;53.020;6.576;2022-12-11T13:14:59;69.33;;;23.13;;
56114;SDS011;41988;53.020;6.576;2022-12-11T13:17:44;78.63;;;23.37;;
56114;SDS011;41988;53.020;6.576;2022-12-11T13:20:29;71.70;;;23.77;;
56114;SDS011;41988;53.020;6.576;2022-12-11T13:23:16;73.50;;;22.57;;
56114;SDS011;41988;53.020;6.576;2022-12-11T13:26:25;79.20;;;24.63;;
56114;SDS011;41988;53.020;6.576;2022-12-11T13:29:35;80.07;;;22.60;;
56114;SDS011;41988;53.020;6.576;2022-12-11T13:32:26;70.27;;;22.70;;
56114;SDS011;41988;53.020;6.576;2022-12-11T13:35:14;70.00;;;24.07;;
56114;SDS011;41988;53.020;6.576;2022-12-11T13:38:05;71.63;;;23.53;;
56114;SDS011;41988;53.020;6.576;2022-12-11T13:40:57;70.93;;;24.07;;
56114;SDS011;41988;53.020;6.576;2022-12-11T13:43:42;75.57;;;21.70;;
56114;SDS011;41988;53.020;6.576;2022-12-11T13:46:30;69.47;;;22.73;;
56114;SDS011;41988;53.020;6.576;2022-12-11T13:49:22;69.97;;;23.40;;
56114;SDS011;41988;53.020;6.576;2022-12-11T13:52:14;71.70;;;25.80;;
56114;SDS011;41988;53.020;6.576;2022-12-11T13:55:01;73.37;;;23.17;;
56114;SDS011;41988;53.020;6.576;2022-12-11T13:58:00;79.43;;;24.40;;
56114;SDS011;41988;53.020;6.576;2022-12-11T14:06:50;81.23;;;25.10;;
56114;SDS011;41988;53.020;6.576;2022-12-11T14:09:36;86.07;;;24.57;;
56114;SDS011;41988;53.020;6.576;2022-12-11T14:12:25;68.37;;;22.93;;
56114;SDS011;41988;53.020;6.576;2022-12-11T14:15:13;74.13;;;23.17;;
56114;SDS011;41988;53.020;6.576;2022-12-11T14:17:58;81.87;;;25.03;;
56114;SDS011;41988;53.020;6.576;2022-12-11T14:20:43;72.47;;;24.80;;
56114;SDS011;41988;53.020;6.576;2022-12-11T14:23:29;71.73;;;28.13;;
56114;SDS011;41988;53.020;6.576;2022-12-11T14:26:22;79.03;;;25.07;;
56114;SDS011;41988;53.020;6.576;2022-12-11T14:29:21;81.17;;;24.80;;
56114;SDS011;41988;53.020;6.576;2022-12-11T14:32:35;81.13;;;25.30;;
56114;SDS011;41988;53.020;6.576;2022-12-11T14:35:31;84.47;;;25.57;;
56114;SDS011;41988;53.020;6.576;2022-12-11T14:38:21;69.03;;;24.30;;
56114;SDS011;41988;53.020;6.576;2022-12-11T14:41:12;80.03;;;27.50;;
56114;SDS011;41988;53.020;6.576;2022-12-11T14:44:14;81.73;;;26.07;;
56114;SDS011;41988;53.020;6.576;2022-12-11T14:47:04;76.90;;;25.93;;
56114;SDS011;41988;53.020;6.576;2022-12-11T14:53:11;82.90;;;25.73;;
56114;SDS011;41988;53.020;6.576;2022-12-11T14:55:59;75.63;;;25.57;;
56114;SDS011;41988;53.020;6.576;2022-12-11T15:01:36;70.03;;;24.97;;
56114;SDS011;41988;53.020;6.576;2022-12-11T15:04:22;66.57;;;24.10;;
56114;SDS011;41988;53.020;6.576;2022-12-11T15:07:17;72.53;;;23.87;;
56114;SDS011;41988;53.020;6.576;2022-12-11T15:10:04;64.63;;;25.03;;
56114;SDS011;41988;53.020;6.576;2022-12-11T15:12:48;65.90;;;22.40;;
56114;SDS011;41988;53.020;6.576;2022-12-11T15:15:51;66.53;;;22.70;;
56114;SDS011;41988;53.020;6.576;2022-12-11T15:18:37;66.85;;;22.73;;
56114;SDS011;41988;53.020;6.576;2022-12-11T15:21:28;59.00;;;22.43;;
56114;SDS011;41988;53.020;6.576;2022-12-11T15:24:22;67.23;;;24.80;;
56114;SDS011;41988;53.020;6.576;2022-12-11T15:33:02;62.30;;;22.47;;
56114;SDS011;41988;53.020;6.576;2022-12-11T15:35:57;56.10;;;22.07;;
56114;SDS011;41988;53.020;6.576;2022-12-11T15:38:42;56.37;;;22.20;;
56114;SDS011;41988;53.020;6.576;2022-12-11T15:41:26;50.83;;;22.07;;
56114;SDS011;41988;53.020;6.576;2022-12-11T15:44:17;50.33;;;20.73;;
56114;SDS011;41988;53.020;6.576;2022-12-11T15:47:13;55.47;;;22.03;;
56114;SDS011;41988;53.020;6.576;2022-12-11T15:49:59;51.90;;;20.93;;
56114;SDS011;41988;53.020;6.576;2022-12-11T15:52:59;52.53;;;21.07;;
56114;SDS011;41988;53.020;6.576;2022-12-11T15:55:43;56.17;;;20.73;;
56114;SDS011;41988;53.020;6.576;2022-12-11T15:58:28;46.63;;;19.93;;
56114;SDS011;41988;53.020;6.576;2022-12-11T16:01:13;54.97;;;21.10;;
56114;SDS011;41988;53.020;6.576;2022-12-11T16:03:58;47.77;;;19.60;;
56114;SDS011;41988;53.020;6.576;2022-12-11T16:06:42;49.63;;;19.97;;
56114;SDS011;41988;53.020;6.576;2022-12-11T16:09:29;51.90;;;20.60;;
56114;SDS011;41988;53.020;6.576;2022-12-11T16:12:14;56.47;;;25.13;;
56114;SDS011;41988;53.020;6.576;2022-12-11T16:14:59;52.37;;;22.30;;
56114;SDS011;41988;53.020;6.576;2022-12-11T16:17:43;51.53;;;23.30;;
56114;SDS011;41988;53.020;6.576;2022-12-11T16:20:28;48.47;;;20.83;;
56114;SDS011;41988;53.020;6.576;2022-12-11T16:23:13;47.40;;;21.80;;
56114;SDS011;41988;53.020;6.576;2022-12-11T16:26:04;55.33;;;22.40;;
56114;SDS011;41988;53.020;6.576;2022-12-11T16:28:49;52.37;;;21.23;;
56114;SDS011;41988;53.020;6.576;2022-12-11T16:31:34;46.50;;;20.13;;
56114;SDS011;41988;53.020;6.576;2022-12-11T16:34:23;46.97;;;19.80;;
56114;SDS011;41988;53.020;6.576;2022-12-11T16:37:08;48.73;;;20.90;;
56114;SDS011;41988;53.020;6.576;2022-12-11T16:39:53;49.20;;;20.90;;
56114;SDS011;41988;53.020;6.576;2022-12-11T16:42:37;48.57;;;19.23;;
56114;SDS011;41988;53.020;6.576;2022-12-11T16:45:23;50.50;;;21.63;;
56114;SDS011;41988;53.020;6.576;2022-12-11T16:48:08;48.43;;;21.73;;
56114;SDS011;41988;53.020;6.576;2022-12-11T16:50:53;48.73;;;21.67;;
56114;SDS011;41988;53.020;6.576;2022-12-11T16:53:37;50.63;;;20.40;;
56114;SDS011;41988;53.020;6.576;2022-12-11T16:56:22;47.57;;;20.70;;
56114;SDS011;41988;53.020;6.576;2022-12-11T16:59:07;51.20;;;20.30;;
56114;SDS011;41988;53.020;6.576;2022-12-11T17:01:52;49.70;;;22.10;;
56114;SDS011;41988;53.020;6.576;2022-12-11T17:04:37;48.53;;;21.47;;
56114;SDS011;41988;53.020;6.576;2022-12-11T17:07:22;53.90;;;21.33;;
56114;SDS011;41988;53.020;6.576;2022-12-11T17:10:06;48.67;;;20.97;;
56114;SDS011;41988;53.020;6.576;2022-12-11T17:12:51;54.33;;;21.40;;
56114;SDS011;41988;53.020;6.576;2022-12-11T17:15:41;53.40;;;20.13;;
56114;SDS011;41988;53.020;6.576;2022-12-11T17:18:27;50.17;;;20.47;;
56114;SDS011;41988;53.020;6.576;2022-12-11T17:21:13;46.13;;;20.27;;
56114;SDS011;41988;53.020;6.576;2022-12-11T17:23:58;53.20;;;21.23;;
56114;SDS011;41988;53.020;6.576;2022-12-11T17:26:43;49.20;;;19.73;;
56114;SDS011;41988;53.020;6.576;2022-12-11T17:29:28;48.33;;;18.57;;
56114;SDS011;41988;53.020;6.576;2022-12-11T17:32:13;44.07;;;18.97;;
56114;SDS011;41988;53.020;6.576;2022-12-11T17:34:59;41.27;;;18.50;;
56114;SDS011;41988;53.020;6.576;2022-12-11T17:37:44;42.50;;;18.70;;
56114;SDS011;41988;53.020;6.576;2022-12-11T17:40:29;41.53;;;16.97;;